CheckWX is a tool to help pilots better visualize weather data.  It is not intended as a substitute for an official pre-flight weather briefing.

18:01:18 UTC

KEGV METAR
Eagle River Union Airport
Eagle River, Wisconsin, USA
Current

6 mins ago

KEGV 171755Z AUTO 06007KT 7SM -SN OVC021 M09/M12 A3003 RMK AO2 T10861125 11086 21135
Observed
Feb-17 @ 17:55 UTC
Wind
  • 060° at 7 KTS
Visibility
7 SM
Flight Rules
MVFR
Conditions
Light Snow
Cloud Levels
  • Overcast at 2,100' AGL
Temperature
-9°C / 16°F
Dewpoint
-13°C / 9°F
Humidity
73%
Altimeter
30.03" Hg
Pressure
1016.92 hPa
Previous

26 mins ago

KEGV 171735Z AUTO 05007KT 5SM -SN OVC019 M09/M13 A3003 RMK AO2 T10891126
Observed
Feb-17 @ 17:35 UTC
Wind
  • 050° at 7 KTS
Visibility
5 SM
Flight Rules
MVFR
Conditions
Light Snow
Cloud Levels
  • Overcast at 1,900' AGL
Temperature
-9°C / 16°F
Dewpoint
-13°C / 9°F
Humidity
73%
Altimeter
30.03" Hg
Pressure
1016.92 hPa
Previous

46 mins ago

KEGV 171715Z AUTO 05008KT 7SM -SN OVC019 M09/M13 A3004 RMK AO2 T10901128
Observed
Feb-17 @ 17:15 UTC
Wind
  • 050° at 8 KTS
Visibility
7 SM
Flight Rules
MVFR
Conditions
Light Snow
Cloud Levels
  • Overcast at 1,900' AGL
Temperature
-9°C / 16°F
Dewpoint
-13°C / 9°F
Humidity
73%
Altimeter
30.04" Hg
Pressure
1017.32 hPa